Time;durP1;ratioP1;P1;durP2;ratioP2;P2;SDS_P1;SDS_P2;PMS_P1;PMS_P2;Temp;Humidity;BMP_temperature;BMP_pressure;BME280_temperature;BME280_humidity;BME280_pressure;Samples;Min_cycle;Max_cycle;Signal;HPM_P1;HPM_P2
2022/08/22 00:02:03;;;;;;;7.03;3.00;;;17.00;88.50;;;;;;5031767;28;20036;-83
2022/08/22 00:04:51;;;;;;;10.13;3.05;;;17.00;88.50;;;;;;5031999;28;20022;-83
2022/08/22 00:07:42;;;;;;;8.25;3.10;;;17.00;88.60;;;;;;5038652;28;20062;-83
2022/08/22 00:10:32;;;;;;;15.30;3.33;;;17.00;88.70;;;;;;5032832;28;20048;-83
2022/08/22 00:13:08;;;;;;;7.53;2.67;;;17.00;88.40;;;;;;5047200;28;20038;-83
2022/08/22 00:15:39;;;;;;;8.45;2.78;;;17.00;88.60;;;;;;5032072;28;20038;-83
2022/08/22 00:18:12;;;;;;;8.13;2.38;;;17.00;87.90;;;;;;5033832;28;20035;-83
2022/08/22 00:20:47;;;;;;;9.70;2.97;;;17.10;87.90;;;;;;5032727;28;20053;-83
2022/08/22 00:23:45;;;;;;;8.80;2.78;;;17.10;87.50;;;;;;5032829;28;20040;-83
2022/08/22 00:26:38;;;;;;;12.68;3.13;;;17.10;87.80;;;;;;5026277;28;20117;-83
2022/08/22 00:29:07;;;;;;;8.80;2.70;;;17.10;88.60;;;;;;5032325;28;20888;-84
2022/08/22 00:31:44;;;;;;;11.30;3.08;;;17.00;88.80;;;;;;5032180;28;20045;-83
2022/08/22 00:34:21;;;;;;;10.98;3.35;;;17.00;88.20;;;;;;5046702;28;20060;-83
2022/08/22 00:36:56;;;;;;;10.43;2.95;;;17.00;88.20;;;;;;5032013;28;20105;-83
2022/08/22 00:39:38;;;;;;;12.40;3.20;;;17.10;87.90;;;;;;5029802;28;20087;-83
2022/08/22 00:43:03;;;;;;;7.90;2.78;;;17.00;87.90;;;;;;5029318;28;20042;-84
2022/08/22 00:45:56;;;;;;;9.65;3.10;;;17.00;88.00;;;;;;4966719;28;20039;-83
2022/08/22 00:48:58;;;;;;;10.30;2.85;;;17.00;88.20;;;;;;4972851;28;20038;-83
2022/08/22 00:51:48;;;;;;;6.15;2.35;;;17.00;88.10;;;;;;5025492;28;20079;-82
2022/08/22 00:54:36;;;;;;;9.48;2.50;;;17.00;88.90;;;;;;5027130;28;20073;-84
2022/08/22 00:57:30;;;;;;;11.32;3.00;;;16.90;88.70;;;;;;5032071;28;20056;-83
2022/08/22 01:00:03;;;;;;;7.93;2.97;;;16.90;88.70;;;;;;5026776;28;20026;-84
2022/08/22 01:03:00;;;;;;;6.60;3.15;;;16.90;88.90;;;;;;5032092;28;20088;-83
2022/08/22 01:05:53;;;;;;;8.48;3.35;;;16.80;88.80;;;;;;5034037;28;20026;-83
2022/08/22 01:08:38;;;;;;;9.50;3.15;;;16.80;89.10;;;;;;5027670;28;20030;-83
2022/08/22 01:11:22;;;;;;;10.98;3.42;;;16.90;89.40;;;;;;5027852;28;20489;-83
2022/08/22 01:14:31;;;;;;;12.50;3.15;;;16.90;89.10;;;;;;5027027;28;20060;-83
2022/08/22 01:17:48;;;;;;;7.97;2.90;;;16.80;89.50;;;;;;5031974;28;20029;-83
2022/08/22 01:20:28;;;;;;;8.82;3.08;;;16.90;89.60;;;;;;4939536;29;20417;-83
2022/08/22 01:23:00;;;;;;;10.77;3.13;;;16.90;89.70;;;;;;5020645;28;20029;-83
2022/08/22 01:25:40;;;;;;;8.77;3.30;;;16.90;88.90;;;;;;5040621;28;20285;-83
2022/08/22 01:28:43;;;;;;;10.55;3.17;;;16.90;88.80;;;;;;5038079;28;20036;-83
2022/08/22 01:31:41;;;;;;;12.65;3.42;;;17.00;89.10;;;;;;5031510;28;20057;-83
2022/08/22 01:34:31;;;;;;;10.75;2.88;;;17.00;89.40;;;;;;5029996;28;20022;-83
2022/08/22 01:37:06;;;;;;;6.87;3.20;;;17.00;89.40;;;;;;5031902;28;20060;-83
2022/08/22 01:40:17;;;;;;;10.15;3.42;;;17.00;89.60;;;;;;5027815;28;20280;-83
2022/08/22 01:42:54;;;;;;;10.05;3.05;;;17.00;89.70;;;;;;5008952;28;20052;-83
2022/08/22 01:45:46;;;;;;;8.02;2.95;;;17.00;89.60;;;;;;5034820;28;20138;-83
2022/08/22 01:48:20;;;;;;;10.30;3.20;;;17.00;89.20;;;;;;5030964;28;20033;-83
2022/08/22 01:50:52;;;;;;;8.52;3.05;;;17.00;88.80;;;;;;5031610;28;20408;-83
2022/08/22 01:53:27;;;;;;;8.73;3.38;;;17.00;89.00;;;;;;5028624;28;20030;-83
2022/08/22 01:56:02;;;;;;;7.80;2.90;;;17.00;89.40;;;;;;5028027;28;20392;-83
2022/08/22 01:58:32;;;;;;;10.57;3.13;;;17.00;89.40;;;;;;5028600;28;20425;-83
2022/08/22 02:01:20;;;;;;;11.50;3.15;;;17.00;89.50;;;;;;5029031;28;20029;-83
2022/08/22 02:04:08;;;;;;;7.57;2.90;;;17.00;89.70;;;;;;5023217;28;20041;-83
2022/08/22 02:07:22;;;;;;;10.75;3.47;;;17.00;89.20;;;;;;5031324;28;20033;-84
2022/08/22 02:10:03;;;;;;;7.90;3.28;;;17.00;89.10;;;;;;5023682;28;20068;-83
2022/08/22 02:12:44;;;;;;;11.52;3.15;;;17.00;89.30;;;;;;5025268;28;20248;-83
2022/08/22 02:15:32;;;;;;;9.43;3.08;;;17.00;89.20;;;;;;5029133;28;20553;-83
2022/08/22 02:18:09;;;;;;;9.93;3.50;;;17.00;89.30;;;;;;5020344;28;20448;-83
2022/08/22 02:20:57;;;;;;;11.90;3.95;;;17.00;89.20;;;;;;5023962;28;20029;-83
2022/08/22 02:23:42;;;;;;;9.27;3.03;;;17.00;89.30;;;;;;5031382;28;20030;-84
2022/08/22 02:26:22;;;;;;;7.78;3.53;;;17.00;89.30;;;;;;5029062;28;20045;-83
2022/08/22 02:28:56;;;;;;;8.57;3.42;;;17.00;89.30;;;;;;5039054;28;20484;-84
2022/08/22 02:31:27;;;;;;;10.02;3.35;;;17.00;89.40;;;;;;5027963;28;20497;-83
2022/08/22 02:34:00;;;;;;;6.43;2.83;;;17.00;89.40;;;;;;5033904;28;20033;-83
2022/08/22 02:36:51;;;;;;;10.10;3.40;;;16.90;89.50;;;;;;5030227;28;20034;-83
2022/08/22 02:39:22;;;;;;;11.80;3.80;;;16.80;89.40;;;;;;5038755;28;20022;-84
2022/08/22 02:42:26;;;;;;;8.98;3.10;;;16.80;89.60;;;;;;5029219;28;20119;-83
2022/08/22 02:45:13;;;;;;;7.60;3.55;;;16.80;89.80;;;;;;5005390;28;20057;-83
2022/08/22 02:48:10;;;;;;;10.13;3.63;;;16.70;89.90;;;;;;5028391;28;20026;-83
2022/08/22 02:50:52;;;;;;;9.48;3.30;;;16.50;90.30;;;;;;5026796;28;20084;-83
2022/08/22 02:53:36;;;;;;;9.45;3.53;;;16.50;90.40;;;;;;5026516;28;20079;-83
2022/08/22 02:56:11;;;;;;;6.13;3.05;;;16.40;90.70;;;;;;5031612;28;20119;-83
2022/08/22 02:58:52;;;;;;;10.15;4.05;;;16.30;90.70;;;;;;5026852;28;20060;-83
2022/08/22 03:01:24;;;;;;;12.65;3.90;;;16.20;91.20;;;;;;5029267;28;20126;-83
2022/08/22 03:03:50;;;;;;;10.88;4.13;;;16.10;91.70;;;;;;5031283;28;20044;-83
2022/08/22 03:06:34;;;;;;;12.48;3.72;;;16.00;91.60;;;;;;5026951;28;20576;-83
2022/08/22 03:09:29;;;;;;;9.27;4.28;;;16.00;91.70;;;;;;5028658;28;20034;-83
2022/08/22 03:12:27;;;;;;;13.98;3.88;;;15.80;91.80;;;;;;5021380;28;20018;-83
2022/08/22 03:15:05;;;;;;;10.15;3.80;;;15.80;92.20;;;;;;5026454;28;20117;-83
2022/08/22 03:18:00;;;;;;;7.28;3.38;;;15.70;92.20;;;;;;5027205;28;20025;-83
2022/08/22 03:20:42;;;;;;;9.68;3.97;;;15.60;92.10;;;;;;5029325;28;20068;-83
2022/08/22 03:23:38;;;;;;;9.45;3.50;;;15.70;92.40;;;;;;5024381;28;20035;-83
2022/08/22 03:26:28;;;;;;;12.60;4.50;;;15.50;92.60;;;;;;5050624;28;20034;-83
2022/08/22 03:29:17;;;;;;;13.40;4.22;;;15.50;92.90;;;;;;5019263;28;20401;-83
2022/08/22 03:32:10;;;;;;;11.65;3.92;;;15.50;93.10;;;;;;5034471;28;20484;-83
2022/08/22 03:34:37;;;;;;;10.70;4.63;;;15.40;93.20;;;;;;5024130;28;20025;-82
2022/08/22 03:37:17;;;;;;;12.25;4.68;;;15.40;93.30;;;;;;5035412;28;20029;-83
2022/08/22 03:39:55;;;;;;;12.23;5.25;;;15.30;93.50;;;;;;5034741;28;20033;-83
2022/08/22 03:42:55;;;;;;;11.15;4.65;;;15.30;93.60;;;;;;5036586;28;20036;-83
2022/08/22 03:45:40;;;;;;;16.77;4.73;;;15.30;93.90;;;;;;5032531;28;20050;-83
2022/08/22 03:48:44;;;;;;;12.52;4.53;;;15.20;94.00;;;;;;5032063;28;20493;-83
2022/08/22 03:51:37;;;;;;;12.75;5.13;;;15.10;94.00;;;;;;5018026;28;20080;-83
2022/08/22 03:54:08;;;;;;;13.80;4.60;;;15.00;94.00;;;;;;5021439;28;20026;-83
2022/08/22 03:56:57;;;;;;;12.70;4.13;;;15.00;94.20;;;;;;5034487;28;20025;-83
2022/08/22 03:59:52;;;;;;;17.20;5.20;;;15.00;94.30;;;;;;5033483;28;20021;-83
2022/08/22 04:02:43;;;;;;;11.27;5.03;;;15.00;94.50;;;;;;5049564;28;20064;-83
2022/08/22 04:05:30;;;;;;;13.07;5.15;;;14.90;94.60;;;;;;5035796;28;20022;-82
2022/08/22 04:08:09;;;;;;;13.23;4.70;;;14.80;94.70;;;;;;5033998;28;20111;-81
2022/08/22 04:10:49;;;;;;;14.00;4.75;;;14.80;94.60;;;;;;5032393;28;20025;-81
2022/08/22 04:13:48;;;;;;;12.18;5.07;;;14.80;94.60;;;;;;5033119;28;20465;-82
2022/08/22 04:16:43;;;;;;;15.48;5.25;;;14.70;94.70;;;;;;5032218;28;20034;-81
2022/08/22 04:19:30;;;;;;;10.77;4.53;;;14.80;94.90;;;;;;5032543;28;20032;-81
2022/08/22 04:22:06;;;;;;;11.63;5.47;;;14.70;95.00;;;;;;5029869;28;20037;-79
2022/08/22 04:24:38;;;;;;;11.90;5.70;;;14.70;95.10;;;;;;5029339;28;20025;-79
2022/08/22 04:27:23;;;;;;;10.48;5.20;;;14.70;95.20;;;;;;5033776;28;20057;-80
2022/08/22 04:30:15;;;;;;;13.52;5.85;;;14.70;95.10;;;;;;5004342;28;20037;-79
2022/08/22 04:32:46;;;;;;;14.02;5.82;;;14.70;95.20;;;;;;5031270;28;20043;-79
2022/08/22 04:35:33;;;;;;;10.27;5.15;;;14.60;95.00;;;;;;5030914;28;20457;-79
2022/08/22 04:38:10;;;;;;;12.57;5.70;;;14.70;95.10;;;;;;5028517;28;20034;-79
2022/08/22 04:40:50;;;;;;;15.25;6.05;;;14.70;95.10;;;;;;5027342;28;20025;-80
2022/08/22 04:43:25;;;;;;;11.50;5.47;;;14.70;95.20;;;;;;5023538;28;20030;-80
2022/08/22 04:46:14;;;;;;;13.30;5.43;;;14.80;95.30;;;;;;5029046;28;20050;-80
2022/08/22 04:48:52;;;;;;;11.85;5.65;;;14.80;95.40;;;;;;5033766;28;20025;-79
2022/08/22 04:51:40;;;;;;;11.82;5.45;;;14.70;95.40;;;;;;5025622;28;20033;-80
2022/08/22 04:54:44;;;;;;;12.73;5.60;;;14.80;95.40;;;;;;5022323;28;20033;-81
2022/08/22 04:57:18;;;;;;;10.35;5.32;;;14.80;95.20;;;;;;5030035;28;20029;-81
2022/08/22 04:59:44;;;;;;;13.48;5.47;;;14.90;95.30;;;;;;5032806;28;20030;-82
2022/08/22 05:02:18;;;;;;;14.80;6.53;;;14.90;95.30;;;;;;5034362;28;20488;-83
2022/08/22 05:04:48;;;;;;;18.02;6.40;;;14.90;95.40;;;;;;5024449;28;20040;-82
2022/08/22 05:07:20;;;;;;;15.18;6.00;;;14.90;95.30;;;;;;5030750;28;20021;-82
2022/08/22 05:09:56;;;;;;;15.30;5.20;;;14.90;95.20;;;;;;5032409;28;20030;-82
2022/08/22 05:12:27;;;;;;;17.92;5.97;;;15.00;95.20;;;;;;5024603;28;20033;-81
2022/08/22 05:15:00;;;;;;;10.18;5.22;;;15.00;95.20;;;;;;5029874;28;20029;-82
2022/08/22 05:17:29;;;;;;;12.07;5.40;;;15.00;95.20;;;;;;5031488;28;20034;-82
2022/08/22 05:19:59;;;;;;;12.80;5.47;;;15.00;95.20;;;;;;5030464;28;20106;-82
2022/08/22 05:22:33;;;;;;;15.63;5.47;;;15.00;95.00;;;;;;5032834;28;20048;-82
2022/08/22 05:25:03;;;;;;;14.82;5.07;;;15.00;95.00;;;;;;5026050;28;20033;-81
2022/08/22 05:27:34;;;;;;;17.88;5.88;;;15.00;95.00;;;;;;5037771;28;20033;-82
2022/08/22 05:30:12;;;;;;;;;;;15.10;95.00;;;;;;5033814;28;20031;-81
2022/08/22 05:32:49;;;;;;;12.10;5.32;;;15.10;95.00;;;;;;5033472;28;20051;-82
2022/08/22 05:35:18;;;;;;;11.57;4.88;;;15.10;95.00;;;;;;5031671;28;20167;-82
2022/08/22 05:37:47;;;;;;;12.25;5.28;;;15.10;95.10;;;;;;5036759;28;20038;-82
2022/08/22 05:40:25;;;;;;;13.32;5.45;;;15.10;95.00;;;;;;5033365;28;20032;-82
2022/08/22 05:42:53;;;;;;;12.38;5.90;;;15.20;94.90;;;;;;5032255;28;20025;-81
2022/08/22 05:45:19;;;;;;;15.27;6.03;;;15.30;95.00;;;;;;5034709;28;20042;-82
2022/08/22 05:47:49;;;;;;;17.75;6.32;;;15.30;94.90;;;;;;5034219;28;20021;-80
2022/08/22 05:50:32;;;;;;;15.52;5.97;;;15.40;94.80;;;;;;5032046;28;20149;-81
2022/08/22 05:53:07;;;;;;;13.05;6.53;;;15.50;94.90;;;;;;5026294;28;20026;-81
2022/08/22 05:55:38;;;;;;;12.27;5.57;;;15.60;94.90;;;;;;5026316;28;20037;-81
2022/08/22 05:58:30;;;;;;;13.60;6.40;;;15.80;94.90;;;;;;5030409;28;20354;-83
2022/08/22 06:01:04;;;;;;;11.23;6.13;;;15.90;95.00;;;;;;5031392;28;20022;-82
2022/08/22 06:03:35;;;;;;;11.55;6.35;;;16.00;94.90;;;;;;5027834;28;20071;-82
2022/08/22 06:06:10;;;;;;;13.25;6.50;;;16.10;94.80;;;;;;5034315;28;20101;-83
2022/08/22 06:08:41;;;;;;;14.05;6.10;;;16.20;94.60;;;;;;5029773;28;20052;-83
2022/08/22 06:11:15;;;;;;;12.40;6.13;;;16.40;94.40;;;;;;5032923;28;20254;-82
2022/08/22 06:13:50;;;;;;;14.43;5.45;;;16.50;94.00;;;;;;5031610;28;20025;-83
2022/08/22 06:16:26;;;;;;;10.70;5.40;;;16.70;93.60;;;;;;5028151;28;20124;-82
2022/08/22 06:18:52;;;;;;;12.50;4.72;;;16.80;93.10;;;;;;5030723;28;20116;-83
2022/08/22 06:21:21;;;;;;;14.65;5.13;;;16.80;92.60;;;;;;5036538;28;20033;-83
2022/08/22 06:23:57;;;;;;;9.50;4.30;;;16.90;92.20;;;;;;5022837;28;20029;-82
2022/08/22 06:26:27;;;;;;;9.73;4.40;;;17.00;92.40;;;;;;5028984;28;20050;-82
2022/08/22 06:28:56;;;;;;;12.35;5.20;;;17.00;92.20;;;;;;5030532;28;20031;-82
2022/08/22 06:31:40;;;;;;;14.27;4.88;;;17.10;92.10;;;;;;5031329;28;20025;-82
2022/08/22 06:34:13;;;;;;;14.10;4.93;;;17.30;91.60;;;;;;5016493;28;20117;-82
2022/08/22 06:36:42;;;;;;;13.05;4.30;;;17.30;90.80;;;;;;5030547;28;20030;-82
2022/08/22 06:39:19;;;;;;;12.70;4.13;;;17.50;90.90;;;;;;5026155;28;20029;-82
2022/08/22 06:42:01;;;;;;;13.82;4.10;;;17.60;90.50;;;;;;5029684;28;20427;-82
2022/08/22 06:44:31;;;;;;;13.38;4.20;;;17.70;89.70;;;;;;5023984;28;20029;-81
2022/08/22 06:46:59;;;;;;;12.20;4.28;;;17.90;89.60;;;;;;5023451;28;20165;-82
2022/08/22 06:49:27;;;;;;;9.23;3.47;;;18.00;89.20;;;;;;5025004;28;20466;-82
2022/08/22 06:51:58;;;;;;;9.93;3.67;;;18.10;88.90;;;;;;5021745;28;20484;-82
2022/08/22 06:54:29;;;;;;;12.02;3.30;;;18.20;88.80;;;;;;5020608;28;20021;-82
2022/08/22 06:56:55;;;;;;;14.57;3.45;;;18.30;88.70;;;;;;5025238;28;20096;-82
2022/08/22 06:59:30;;;;;;;9.60;3.00;;;18.40;88.10;;;;;;5028382;28;20441;-82
2022/08/22 07:02:03;;;;;;;15.52;3.67;;;18.60;87.10;;;;;;5026614;28;20048;-82
2022/08/22 07:04:30;;;;;;;7.38;3.10;;;18.80;87.00;;;;;;5026614;28;20128;-81
2022/08/22 07:06:57;;;;;;;9.02;2.75;;;18.90;87.10;;;;;;5028177;28;20045;-82
2022/08/22 07:09:26;;;;;;;8.90;3.22;;;18.90;85.70;;;;;;5022260;28;20025;-82
2022/08/22 07:11:55;;;;;;;4.80;2.13;;;19.00;85.40;;;;;;5024816;28;20116;-81
2022/08/22 07:14:31;;;;;;;14.93;3.10;;;19.10;85.50;;;;;;5024768;28;20469;-82
2022/08/22 07:17:00;;;;;;;8.45;2.17;;;19.30;84.60;;;;;;5025443;28;20029;-81
2022/08/22 07:19:31;;;;;;;8.55;2.42;;;19.50;83.80;;;;;;5026436;28;20056;-81
2022/08/22 07:21:58;;;;;;;11.90;2.30;;;19.70;84.00;;;;;;5023975;28;20442;-81
2022/08/22 07:24:31;;;;;;;12.77;2.38;;;20.00;83.40;;;;;;5023693;28;20081;-82
2022/08/22 07:27:37;;;;;;;9.55;2.88;;;20.10;83.40;;;;;;5024270;28;20026;-81
2022/08/22 07:30:10;;;;;;;13.63;2.20;;;20.30;82.50;;;;;;5030014;28;20404;-81
2022/08/22 07:32:53;;;;;;;10.20;2.20;;;20.50;82.00;;;;;;5028214;28;20083;-81
2022/08/22 07:35:32;;;;;;;10.65;2.38;;;20.60;81.20;;;;;;5027308;28;20049;-82
2022/08/22 07:38:06;;;;;;;6.32;2.47;;;20.90;81.40;;;;;;5028921;28;20366;-81
2022/08/22 07:41:03;;;;;;;8.57;1.67;;;21.00;80.00;;;;;;5022085;28;20056;-82
2022/08/22 07:44:04;;;;;;;9.07;2.10;;;21.10;76.90;;;;;;5019061;28;20029;-82
2022/08/22 07:46:35;;;;;;;10.32;2.05;;;21.40;78.40;;;;;;5027696;28;20737;-81
2022/08/22 07:49:27;;;;;;;6.15;1.95;;;21.60;77.40;;;;;;5024584;28;20036;-81
2022/08/22 07:51:57;;;;;;;7.93;1.70;;;21.70;76.40;;;;;;5026544;28;20072;-81
2022/08/22 07:54:38;;;;;;;9.30;1.88;;;21.90;76.00;;;;;;5021754;28;20033;-81
2022/08/22 07:57:04;;;;;;;5.95;1.75;;;22.10;73.10;;;;;;5039556;28;20637;-80
2022/08/22 07:59:34;;;;;;;8.73;2.08;;;22.10;72.50;;;;;;5021871;28;20068;-81
2022/08/22 08:02:04;;;;;;;9.07;2.13;;;22.20;70.30;;;;;;5039743;28;20044;-80
2022/08/22 08:04:33;;;;;;;7.63;2.05;;;22.00;73.00;;;;;;5025835;28;20040;-81
2022/08/22 08:07:01;;;;;;;9.65;1.83;;;22.20;71.90;;;;;;5027600;28;20112;-80
2022/08/22 08:09:32;;;;;;;7.90;2.03;;;22.00;72.20;;;;;;5031683;28;20029;-81
2022/08/22 08:12:00;;;;;;;8.63;1.77;;;22.30;73.00;;;;;;5019276;28;20039;-80
2022/08/22 08:14:26;;;;;;;6.75;1.80;;;22.10;72.00;;;;;;5024813;28;20029;-82
2022/08/22 08:17:26;;;;;;;6.13;1.30;;;22.20;72.50;;;;;;5026232;28;20026;-81
2022/08/22 08:19:53;;;;;;;3.33;1.63;;;22.40;70.60;;;;;;4994592;28;20112;-80
2022/08/22 08:22:23;;;;;;;5.60;1.80;;;22.50;71.30;;;;;;5024908;28;20033;-81
2022/08/22 08:24:50;;;;;;;5.88;1.83;;;22.70;71.30;;;;;;5024942;28;20112;-81
2022/08/22 08:30:18;;;;;;;9.85;1.98;;;23.00;67.10;;;;;;5023894;28;20041;-81
2022/08/22 08:32:55;;;;;;;6.03;1.77;;;23.00;67.60;;;;;;5022745;28;20595;-82
2022/08/22 08:35:34;;;;;;;7.63;2.08;;;23.40;68.80;;;;;;5022810;28;20487;-81
2022/08/22 08:38:08;;;;;;;3.67;1.38;;;23.20;67.50;;;;;;5026687;28;20021;-81
2022/08/22 08:41:05;;;;;;;5.40;1.73;;;23.50;68.30;;;;;;5021592;28;20120;-81
2022/08/22 08:43:39;;;;;;;9.68;1.83;;;23.70;66.50;;;;;;5022765;28;20053;-81
2022/08/22 08:46:41;;;;;;;5.63;1.52;;;23.70;67.10;;;;;;5020540;28;20045;-81
2022/08/22 08:49:28;;;;;;;5.43;1.70;;;23.90;66.80;;;;;;5026641;28;20025;-80
2022/08/22 08:52:12;;;;;;;5.45;1.67;;;23.90;65.10;;;;;;5025252;28;20396;-81
2022/08/22 08:55:01;;;;;;;7.47;1.90;;;24.00;64.60;;;;;;5020646;28;20033;-80
2022/08/22 08:57:38;;;;;;;6.85;2.10;;;24.00;63.90;;;;;;5024365;28;20040;-80
2022/08/22 09:00:51;;;;;;;10.93;2.08;;;24.30;64.40;;;;;;5021804;28;20111;-81
2022/08/22 09:04:04;;;;;;;9.55;2.33;;;24.00;62.70;;;;;;5002971;28;20092;-81
2022/08/22 09:06:52;;;;;;;11.65;1.98;;;24.40;63.40;;;;;;5022169;28;20095;-81
2022/08/22 09:09:30;;;;;;;5.60;1.50;;;24.20;63.20;;;;;;5027109;28;20120;-81
2022/08/22 09:12:26;;;;;;;6.40;1.92;;;24.80;62.50;;;;;;5022608;28;20035;-80
2022/08/22 09:15:02;;;;;;;4.57;1.45;;;24.90;62.00;;;;;;5027117;28;20053;-81
2022/08/22 09:17:50;;;;;;;4.57;1.42;;;24.90;54.90;;;;;;5024936;28;20029;-82
2022/08/22 09:20:21;;;;;;;7.45;1.30;;;24.90;54.20;;;;;;5022697;28;20087;-82
2022/08/22 09:23:25;;;;;;;7.63;1.80;;;25.20;54.10;;;;;;5023141;28;20084;-82
2022/08/22 09:26:20;;;;;;;6.18;1.55;;;25.20;55.80;;;;;;5022369;28;20018;-80
2022/08/22 09:28:54;;;;;;;7.15;1.52;;;24.90;58.50;;;;;;5021954;28;20091;-82
2022/08/22 09:31:39;;;;;;;7.15;1.75;;;25.00;58.20;;;;;;5021614;28;20025;-82
2022/08/22 09:34:20;;;;;;;5.13;1.55;;;24.90;56.60;;;;;;5022911;28;20481;-81
2022/08/22 09:37:18;;;;;;;6.45;1.48;;;25.50;57.10;;;;;;5021529;28;20052;-81
2022/08/22 09:40:05;;;;;;;8.80;2.13;;;25.40;57.20;;;;;;5023369;28;20048;-82
2022/08/22 09:42:38;;;;;;;4.60;1.42;;;25.60;53.10;;;;;;5020006;28;20773;-82
2022/08/22 09:45:10;;;;;;;5.07;1.40;;;25.50;54.00;;;;;;5024610;28;20045;-81
2022/08/22 09:47:46;;;;;;;6.22;1.42;;;26.10;55.80;;;;;;5024452;28;20025;-82
2022/08/22 09:50:29;;;;;;;4.10;1.40;;;26.20;52.30;;;;;;5025378;28;20083;-82
2022/08/22 09:53:23;;;;;;;4.80;1.30;;;26.60;49.70;;;;;;5023453;28;20022;-82
2022/08/22 09:56:09;;;;;;;4.18;1.52;;;26.90;51.60;;;;;;5022222;28;20489;-82
2022/08/22 09:58:45;;;;;;;4.40;1.30;;;26.80;50.20;;;;;;5021576;28;20682;-82
2022/08/22 10:01:17;;;;;;;5.18;1.30;;;27.10;48.60;;;;;;5022266;28;20048;-82
2022/08/22 10:04:21;;;;;;;4.45;1.20;;;27.00;47.30;;;;;;5020375;28;20083;-82
2022/08/22 10:07:24;;;;;;;3.58;1.20;;;27.00;45.50;;;;;;5002211;28;20156;-81
2022/08/22 10:10:02;;;;;;;4.82;1.30;;;26.40;48.80;;;;;;5022516;28;20037;-82
2022/08/22 10:12:41;;;;;;;4.65;1.25;;;26.00;49.40;;;;;;5018543;28;20033;-81
2022/08/22 10:15:32;;;;;;;7.13;1.65;;;25.60;48.40;;;;;;5025240;28;20045;-82
2022/08/22 10:18:14;;;;;;;3.10;1.13;;;25.80;49.00;;;;;;5024991;28;20071;-82
2022/08/22 10:21:12;;;;;;;6.65;1.30;;;26.60;47.80;;;;;;5023127;28;20496;-82
2022/08/22 10:23:53;;;;;;;2.70;1.10;;;26.60;46.50;;;;;;5015836;28;20046;-82
2022/08/22 10:26:50;;;;;;;5.32;1.40;;;26.90;47.40;;;;;;5023039;28;20119;-82
2022/08/22 10:29:34;;;;;;;2.85;1.15;;;27.10;46.80;;;;;;5020243;28;20040;-82
2022/08/22 10:32:37;;;;;;;4.40;1.50;;;27.60;47.30;;;;;;5020914;28;20087;-82
2022/08/22 10:35:22;;;;;;;4.68;1.35;;;28.00;46.00;;;;;;5027486;28;20026;-81
2022/08/22 10:38:04;;;;;;;3.15;1.30;;;28.20;43.00;;;;;;5025426;28;20551;-82
2022/08/22 10:40:40;;;;;;;7.85;1.30;;;27.00;45.00;;;;;;5027635;28;20029;-82
2022/08/22 10:43:11;;;;;;;6.47;1.35;;;27.80;44.20;;;;;;5023650;28;20136;-82
2022/08/22 10:45:42;;;;;;;4.22;1.10;;;27.90;44.90;;;;;;5026343;28;20141;-82
2022/08/22 10:48:08;;;;;;;8.10;1.40;;;28.50;43.50;;;;;;5025514;28;20036;-82
2022/08/22 10:50:47;;;;;;;6.15;1.20;;;28.90;42.20;;;;;;5027834;28;20488;-82
2022/08/22 10:53:34;;;;;;;4.00;1.13;;;29.20;43.70;;;;;;5023274;28;20033;-82
2022/08/22 10:56:09;;;;;;;6.47;0.98;;;28.70;43.40;;;;;;5031729;28;20288;-82
2022/08/22 10:58:46;;;;;;;4.40;1.20;;;28.90;43.10;;;;;;5016997;28;20118;-83
2022/08/22 11:01:15;;;;;;;3.63;1.40;;;29.00;43.60;;;;;;5023318;28;20188;-82
2022/08/22 11:04:04;;;;;;;4.13;1.20;;;28.80;41.40;;;;;;5022199;28;20068;-82
2022/08/22 11:06:44;;;;;;;2.88;1.17;;;28.60;42.30;;;;;;5023006;28;20124;-83
2022/08/22 11:09:38;;;;;;;2.60;1.10;;;29.10;42.00;;;;;;5025240;28;20026;-83
2022/08/22 11:12:35;;;;;;;3.33;1.20;;;29.20;40.70;;;;;;5016100;28;20115;-82
2022/08/22 11:15:17;;;;;;;5.38;1.17;;;29.40;42.10;;;;;;5020406;28;20115;-82
2022/08/22 11:18:14;;;;;;;3.60;1.35;;;30.00;39.60;;;;;;5023461;28;20490;-82
2022/08/22 11:20:57;;;;;;;3.28;1.17;;;30.10;39.90;;;;;;5026444;28;20093;-83
2022/08/22 11:23:41;;;;;;;5.38;1.10;;;30.50;39.20;;;;;;5016999;28;20420;-83
2022/08/22 11:26:13;;;;;;;4.50;1.17;;;30.10;39.70;;;;;;5024926;28;20036;-82
2022/08/22 11:28:44;;;;;;;3.10;1.15;;;30.60;38.90;;;;;;5020258;28;20037;-83
2022/08/22 11:31:36;;;;;;;5.60;1.33;;;30.10;39.60;;;;;;5023012;28;20511;-82
2022/08/22 11:34:22;;;;;;;3.80;1.35;;;29.10;41.00;;;;;;5022525;28;20032;-82
2022/08/22 11:36:54;;;;;;;4.75;1.15;;;28.90;40.00;;;;;;5026109;28;20119;-83
2022/08/22 11:39:37;;;;;;;5.20;1.33;;;29.40;40.90;;;;;;5024819;28;20045;-82
2022/08/22 11:42:13;;;;;;;3.17;1.10;;;29.80;39.90;;;;;;5021917;28;20043;-83
2022/08/22 11:44:41;;;;;;;3.38;1.10;;;30.10;37.40;;;;;;5026108;28;20606;-82
2022/08/22 11:47:13;;;;;;;5.65;1.23;;;29.60;39.00;;;;;;5023933;28;20582;-82
2022/08/22 11:49:56;;;;;;;4.70;1.30;;;29.40;39.20;;;;;;5026850;28;20040;-81
2022/08/22 11:52:39;;;;;;;4.28;1.25;;;29.90;38.60;;;;;;5014129;28;20388;-83
2022/08/22 11:55:25;;;;;;;3.45;1.13;;;30.60;38.20;;;;;;5023408;28;20034;-82
2022/08/22 11:57:56;;;;;;;2.75;1.05;;;30.00;38.70;;;;;;5026952;28;20757;-82
2022/08/22 12:00:36;;;;;;;6.32;1.40;;;30.30;40.90;;;;;;5025299;28;20132;-83
2022/08/22 12:03:15;;;;;;;3.38;1.20;;;30.40;37.70;;;;;;5019893;28;20059;-82
2022/08/22 12:05:51;;;;;;;2.63;1.27;;;30.40;37.40;;;;;;5022492;28;20029;-82
2022/08/22 12:08:29;;;;;;;5.70;1.40;;;29.90;38.40;;;;;;5025203;28;20064;-83
2022/08/22 12:11:07;;;;;;;3.80;1.20;;;29.60;39.50;;;;;;5026787;28;20029;-82
2022/08/22 12:13:45;;;;;;;3.25;1.10;;;29.90;37.70;;;;;;5014838;28;20022;-82
2022/08/22 12:16:24;;;;;;;4.07;1.15;;;29.60;39.30;;;;;;5023945;28;20033;-82
2022/08/22 12:19:18;;;;;;;3.90;1.35;;;29.30;41.30;;;;;;5022836;28;20376;-83
2022/08/22 12:22:00;;;;;;;4.88;1.23;;;29.20;39.30;;;;;;5020471;28;20068;-83
2022/08/22 12:24:39;;;;;;;2.38;0.90;;;28.80;41.20;;;;;;5019404;28;20072;-83
2022/08/22 12:27:30;;;;;;;3.92;1.00;;;28.50;42.20;;;;;;5022359;28;20037;-82
2022/08/22 12:30:19;;;;;;;5.47;1.17;;;28.60;42.30;;;;;;5024721;28;20376;-83
2022/08/22 12:32:57;;;;;;;4.07;1.33;;;28.40;42.70;;;;;;5017744;28;20040;-82
2022/08/22 12:35:53;;;;;;;4.47;1.40;;;28.90;42.70;;;;;;5021299;28;20037;-82
2022/08/22 12:38:57;;;;;;;6.63;1.42;;;28.90;42.40;;;;;;5018550;28;20483;-83
2022/08/22 12:41:45;;;;;;;4.95;1.10;;;28.40;42.50;;;;;;5022073;28;20559;-82
2022/08/22 12:44:38;;;;;;;4.35;1.40;;;28.50;40.60;;;;;;5017859;28;20029;-82
2022/08/22 12:47:43;;;;;;;5.43;1.42;;;29.00;41.40;;;;;;5019016;28;20043;-82
2022/08/22 12:50:17;;;;;;;4.20;1.02;;;28.00;42.50;;;;;;5026377;28;20033;-82
2022/08/22 12:52:58;;;;;;;5.20;1.45;;;28.50;42.70;;;;;;5018854;28;20030;-82
2022/08/22 12:55:47;;;;;;;4.43;1.05;;;28.30;40.20;;;;;;5022155;28;20021;-82
2022/08/22 12:58:50;;;;;;;3.45;1.00;;;27.60;42.20;;;;;;5015127;28;20502;-82
2022/08/22 13:01:17;;;;;;;5.30;1.27;;;27.80;41.10;;;;;;5017743;28;20155;-82
2022/08/22 13:03:49;;;;;;;4.22;1.30;;;27.90;41.10;;;;;;5014512;28;20044;-82
2022/08/22 13:06:33;;;;;;;4.80;1.23;;;27.70;42.10;;;;;;5023934;28;20536;-83
2022/08/22 13:09:00;;;;;;;5.05;1.17;;;28.00;41.80;;;;;;5022164;28;20036;-82
2022/08/22 13:11:27;;;;;;;4.70;1.42;;;28.20;40.20;;;;;;5023144;28;20033;-83
2022/08/22 13:13:57;;;;;;;2.15;1.17;;;27.90;42.20;;;;;;5021762;28;20163;-83
2022/08/22 13:16:25;;;;;;;3.28;1.27;;;27.80;40.40;;;;;;5024966;28;20037;-83
2022/08/22 13:18:59;;;;;;;6.55;1.35;;;28.50;40.70;;;;;;5024633;28;20042;-83
2022/08/22 13:21:31;;;;;;;3.70;1.25;;;29.90;38.10;;;;;;5018861;28;20029;-83
2022/08/22 13:24:02;;;;;;;6.05;1.20;;;31.20;36.50;;;;;;5018995;28;20077;-82
2022/08/22 13:26:30;;;;;;;6.22;1.10;;;31.50;34.20;;;;;;5021017;28;20033;-82
2022/08/22 13:29:03;;;;;;;5.30;1.40;;;32.90;34.00;;;;;;5022308;28;20029;-83
2022/08/22 13:31:37;;;;;;;2.97;1.23;;;33.70;32.60;;;;;;5024367;28;20010;-83
2022/08/22 13:34:18;;;;;;;2.40;0.90;;;33.40;31.60;;;;;;5020297;28;20025;-83
2022/08/22 13:36:48;;;;;;;3.90;1.25;;;33.50;31.10;;;;;;5023272;28;20385;-83
2022/08/22 13:39:13;;;;;;;3.65;1.17;;;34.50;30.00;;;;;;5024454;28;20132;-83
2022/08/22 13:41:47;;;;;;;4.90;1.08;;;34.40;30.60;;;;;;5025774;28;20189;-84
2022/08/22 13:44:21;;;;;;;3.72;1.15;;;34.80;29.80;;;;;;5024099;28;20049;-83
2022/08/22 13:46:49;;;;;;;1.95;0.98;;;34.60;30.80;;;;;;5020685;28;20052;-83
2022/08/22 13:49:29;;;;;;;5.00;1.20;;;33.90;31.90;;;;;;5023164;28;20091;-83
2022/08/22 13:52:24;;;;;;;3.97;1.38;;;33.80;33.10;;;;;;5021394;28;20060;-83
2022/08/22 13:55:30;;;;;;;3.67;0.82;;;34.10;32.00;;;;;;5024564;28;20040;-83
2022/08/22 13:58:05;;;;;;;4.97;1.20;;;34.00;30.10;;;;;;5023518;28;20037;-83